sensor_id;sensor_type;location;lat;lon;timestamp;pressure;altitude;pressure_sealevel;temperature;humidity
11038;BME280;5572;49.540;11.932;2022-07-29T00:01:35;96322.53;;;19.15;100.00
11038;BME280;5572;49.540;11.932;2022-07-29T00:04:02;96323.44;;;19.07;100.00
11038;BME280;5572;49.540;11.932;2022-07-29T00:06:28;96347.09;;;19.00;100.00
11038;BME280;5572;49.540;11.932;2022-07-29T00:08:55;96329.25;;;19.17;100.00
11038;BME280;5572;49.540;11.932;2022-07-29T00:11:21;96287.78;;;19.19;100.00
11038;BME280;5572;49.540;11.932;2022-07-29T00:13:48;96328.97;;;18.95;100.00
11038;BME280;5572;49.540;11.932;2022-07-29T00:16:16;96345.06;;;18.97;100.00
11038;BME280;5572;49.540;11.932;2022-07-29T00:18:42;96293.66;;;19.33;100.00
11038;BME280;5572;49.540;11.932;2022-07-29T00:21:09;96256.34;;;19.28;100.00
11038;BME280;5572;49.540;11.932;2022-07-29T00:23:35;96242.41;;;19.06;100.00
11038;BME280;5572;49.540;11.932;2022-07-29T00:26:02;96260.66;;;19.14;100.00
11038;BME280;5572;49.540;11.932;2022-07-29T00:28:29;96255.53;;;19.28;100.00
11038;BME280;5572;49.540;11.932;2022-07-29T00:30:55;96234.56;;;19.20;100.00
11038;BME280;5572;49.540;11.932;2022-07-29T00:33:23;96290.00;;;19.01;100.00
11038;BME280;5572;49.540;11.932;2022-07-29T00:35:49;96286.78;;;18.84;100.00
11038;BME280;5572;49.540;11.932;2022-07-29T00:38:17;96215.78;;;19.34;100.00
11038;BME280;5572;49.540;11.932;2022-07-29T00:40:45;96204.59;;;19.42;100.00
11038;BME280;5572;49.540;11.932;2022-07-29T00:43:12;96112.25;;;19.62;100.00
11038;BME280;5572;49.540;11.932;2022-07-29T00:45:38;96150.81;;;19.07;100.00
11038;BME280;5572;49.540;11.932;2022-07-29T00:48:05;96129.09;;;19.60;100.00
11038;BME280;5572;49.540;11.932;2022-07-29T00:50:35;96040.66;;;19.67;100.00
11038;BME280;5572;49.540;11.932;2022-07-29T00:53:03;95964.47;;;19.76;100.00
11038;BME280;5572;49.540;11.932;2022-07-29T00:55:29;96012.97;;;19.72;100.00
11038;BME280;5572;49.540;11.932;2022-07-29T00:57:56;96034.69;;;19.61;100.00
11038;BME280;5572;49.540;11.932;2022-07-29T01:00:25;96072.84;;;19.51;100.00
11038;BME280;5572;49.540;11.932;2022-07-29T01:02:52;96036.78;;;19.68;100.00
11038;BME280;5572;49.540;11.932;2022-07-29T01:05:20;96011.50;;;19.78;100.00
11038;BME280;5572;49.540;11.932;2022-07-29T01:07:51;95913.13;;;19.95;100.00
11038;BME280;5572;49.540;11.932;2022-07-29T01:10:19;95903.31;;;19.75;100.00
11038;BME280;5572;49.540;11.932;2022-07-29T01:12:50;95904.19;;;19.79;100.00
11038;BME280;5572;49.540;11.932;2022-07-29T01:15:17;95854.00;;;19.97;100.00
11038;BME280;5572;49.540;11.932;2022-07-29T01:17:45;95786.03;;;20.10;100.00
11038;BME280;5572;49.540;11.932;2022-07-29T01:20:20;95789.00;;;20.01;100.00
11038;BME280;5572;49.540;11.932;2022-07-29T01:26:13;95793.06;;;19.88;100.00
11038;BME280;5572;49.540;11.932;2022-07-29T01:29:00;95913.53;;;19.75;100.00
11038;BME280;5572;49.540;11.932;2022-07-29T01:31:31;95973.94;;;19.78;100.00
11038;BME280;5572;49.540;11.932;2022-07-29T01:34:03;95899.31;;;19.69;100.00
11038;BME280;5572;49.540;11.932;2022-07-29T01:36:35;95803.25;;;19.88;100.00
11038;BME280;5572;49.540;11.932;2022-07-29T01:39:07;95772.28;;;19.88;100.00
11038;BME280;5572;49.540;11.932;2022-07-29T01:41:37;95795.47;;;19.90;100.00
11038;BME280;5572;49.540;11.932;2022-07-29T01:44:12;95906.34;;;19.89;100.00
11038;BME280;5572;49.540;11.932;2022-07-29T01:46:44;95840.34;;;19.82;100.00
11038;BME280;5572;49.540;11.932;2022-07-29T01:49:15;95826.09;;;19.73;100.00
11038;BME280;5572;49.540;11.932;2022-07-29T01:51:46;95798.19;;;19.90;100.00
11038;BME280;5572;49.540;11.932;2022-07-29T01:54:19;95811.66;;;19.76;100.00
11038;BME280;5572;49.540;11.932;2022-07-29T01:56:48;95800.69;;;19.76;100.00
11038;BME280;5572;49.540;11.932;2022-07-29T01:59:19;95777.34;;;19.86;100.00
11038;BME280;5572;49.540;11.932;2022-07-29T02:01:47;95774.13;;;19.80;100.00
11038;BME280;5572;49.540;11.932;2022-07-29T02:04:17;95804.03;;;19.88;100.00
11038;BME280;5572;49.540;11.932;2022-07-29T02:06:44;95835.63;;;19.79;100.00
11038;BME280;5572;49.540;11.932;2022-07-29T02:09:14;95909.28;;;19.58;100.00
11038;BME280;5572;49.540;11.932;2022-07-29T02:11:47;95931.47;;;19.53;100.00
11038;BME280;5572;49.540;11.932;2022-07-29T02:14:15;95963.06;;;19.28;100.00
11038;BME280;5572;49.540;11.932;2022-07-29T02:16:46;95930.97;;;19.48;100.00
11038;BME280;5572;49.540;11.932;2022-07-29T02:19:17;95903.72;;;19.55;100.00
11038;BME280;5572;49.540;11.932;2022-07-29T02:21:45;95893.34;;;19.45;100.00
11038;BME280;5572;49.540;11.932;2022-07-29T02:24:13;95888.94;;;19.40;100.00
11038;BME280;5572;49.540;11.932;2022-07-29T02:26:42;95933.00;;;19.51;100.00
11038;BME280;5572;49.540;11.932;2022-07-29T02:29:10;95992.75;;;19.42;100.00
11038;BME280;5572;49.540;11.932;2022-07-29T02:31:39;96042.69;;;19.51;100.00
11038;BME280;5572;49.540;11.932;2022-07-29T02:34:10;96138.19;;;19.33;100.00
11038;BME280;5572;49.540;11.932;2022-07-29T02:36:38;96226.97;;;19.29;100.00
11038;BME280;5572;49.540;11.932;2022-07-29T02:39:06;96262.78;;;19.20;100.00
11038;BME280;5572;49.540;11.932;2022-07-29T02:41:40;96295.22;;;19.18;100.00
11038;BME280;5572;49.540;11.932;2022-07-29T02:44:10;96290.91;;;19.05;100.00
11038;BME280;5572;49.540;11.932;2022-07-29T02:46:42;96270.94;;;19.05;100.00
11038;BME280;5572;49.540;11.932;2022-07-29T02:49:14;96235.75;;;19.07;100.00
11038;BME280;5572;49.540;11.932;2022-07-29T02:51:44;96187.69;;;19.09;100.00
11038;BME280;5572;49.540;11.932;2022-07-29T02:54:31;96179.00;;;18.92;100.00
11038;BME280;5572;49.540;11.932;2022-07-29T02:57:03;96163.50;;;19.11;100.00
11038;BME280;5572;49.540;11.932;2022-07-29T02:59:34;96180.94;;;18.92;100.00
11038;BME280;5572;49.540;11.932;2022-07-29T03:02:03;96205.72;;;18.68;100.00
11038;BME280;5572;49.540;11.932;2022-07-29T03:04:34;96208.13;;;18.85;100.00
11038;BME280;5572;49.540;11.932;2022-07-29T03:07:01;96222.53;;;18.82;100.00
11038;BME280;5572;49.540;11.932;2022-07-29T03:09:30;96284.22;;;18.64;100.00
11038;BME280;5572;49.540;11.932;2022-07-29T03:11:57;96277.09;;;18.75;100.00
11038;BME280;5572;49.540;11.932;2022-07-29T03:14:24;96323.44;;;18.80;100.00
11038;BME280;5572;49.540;11.932;2022-07-29T03:16:51;96340.81;;;18.60;100.00
11038;BME280;5572;49.540;11.932;2022-07-29T03:19:18;96344.81;;;18.62;100.00
11038;BME280;5572;49.540;11.932;2022-07-29T03:21:47;96376.72;;;18.70;100.00
11038;BME280;5572;49.540;11.932;2022-07-29T03:24:28;96356.31;;;18.68;100.00
11038;BME280;5572;49.540;11.932;2022-07-29T03:26:55;96350.97;;;18.59;100.00
11038;BME280;5572;49.540;11.932;2022-07-29T03:29:23;96342.13;;;18.90;100.00
11038;BME280;5572;49.540;11.932;2022-07-29T03:31:50;96354.59;;;18.75;100.00
11038;BME280;5572;49.540;11.932;2022-07-29T03:34:16;96406.16;;;18.73;100.00
11038;BME280;5572;49.540;11.932;2022-07-29T03:36:43;96494.03;;;18.56;100.00
11038;BME280;5572;49.540;11.932;2022-07-29T03:39:12;96591.44;;;18.57;100.00
11038;BME280;5572;49.540;11.932;2022-07-29T03:41:42;96633.28;;;18.46;100.00
11038;BME280;5572;49.540;11.932;2022-07-29T03:44:10;96714.00;;;17.99;100.00
11038;BME280;5572;49.540;11.932;2022-07-29T03:46:39;96650.88;;;18.57;100.00
11038;BME280;5572;49.540;11.932;2022-07-29T03:49:06;96450.00;;;18.73;100.00
11038;BME280;5572;49.540;11.932;2022-07-29T03:51:34;96376.59;;;18.91;100.00
11038;BME280;5572;49.540;11.932;2022-07-29T03:54:02;96311.03;;;18.98;100.00
11038;BME280;5572;49.540;11.932;2022-07-29T03:56:32;96290.44;;;19.03;100.00
11038;BME280;5572;49.540;11.932;2022-07-29T03:59:01;96315.88;;;18.89;100.00
11038;BME280;5572;49.540;11.932;2022-07-29T04:01:29;96350.91;;;18.83;100.00
11038;BME280;5572;49.540;11.932;2022-07-29T04:03:56;96329.66;;;18.92;100.00
11038;BME280;5572;49.540;11.932;2022-07-29T04:06:22;96325.59;;;18.86;100.00
11038;BME280;5572;49.540;11.932;2022-07-29T04:08:50;96295.19;;;18.91;100.00
11038;BME280;5572;49.540;11.932;2022-07-29T04:11:17;96277.00;;;19.10;100.00
11038;BME280;5572;49.540;11.932;2022-07-29T04:13:45;96248.88;;;19.13;100.00
11038;BME280;5572;49.540;11.932;2022-07-29T04:16:12;96247.72;;;19.14;100.00
11038;BME280;5572;49.540;11.932;2022-07-29T04:18:38;96226.25;;;19.16;100.00
11038;BME280;5572;49.540;11.932;2022-07-29T04:21:05;96292.09;;;18.93;100.00
11038;BME280;5572;49.540;11.932;2022-07-29T04:23:31;96299.63;;;18.96;100.00
11038;BME280;5572;49.540;11.932;2022-07-29T04:25:58;96398.16;;;18.80;100.00
11038;BME280;5572;49.540;11.932;2022-07-29T04:28:26;96332.63;;;18.87;100.00
11038;BME280;5572;49.540;11.932;2022-07-29T04:30:54;96318.16;;;18.87;100.00
11038;BME280;5572;49.540;11.932;2022-07-29T04:33:20;96347.63;;;18.78;100.00
11038;BME280;5572;49.540;11.932;2022-07-29T04:35:47;96327.50;;;18.86;100.00
11038;BME280;5572;49.540;11.932;2022-07-29T04:38:13;96322.84;;;18.86;100.00
11038;BME280;5572;49.540;11.932;2022-07-29T04:40:40;96294.91;;;18.81;100.00
11038;BME280;5572;49.540;11.932;2022-07-29T04:43:06;96321.91;;;18.94;100.00
11038;BME280;5572;49.540;11.932;2022-07-29T04:45:33;96308.31;;;18.98;100.00
11038;BME280;5572;49.540;11.932;2022-07-29T04:48:01;96341.41;;;18.93;100.00
11038;BME280;5572;49.540;11.932;2022-07-29T04:50:28;96300.81;;;18.83;100.00
11038;BME280;5572;49.540;11.932;2022-07-29T04:52:54;96301.75;;;18.75;100.00
11038;BME280;5572;49.540;11.932;2022-07-29T04:55:21;96407.16;;;18.93;100.00
11038;BME280;5572;49.540;11.932;2022-07-29T04:57:47;96508.97;;;18.95;100.00
11038;BME280;5572;49.540;11.932;2022-07-29T05:00:14;96488.66;;;18.84;100.00
11038;BME280;5572;49.540;11.932;2022-07-29T05:02:40;96456.16;;;18.70;100.00
11038;BME280;5572;49.540;11.932;2022-07-29T05:05:08;96338.47;;;18.86;100.00
11038;BME280;5572;49.540;11.932;2022-07-29T05:07:35;96330.84;;;19.18;100.00
11038;BME280;5572;49.540;11.932;2022-07-29T05:10:02;96319.34;;;19.13;100.00
11038;BME280;5572;49.540;11.932;2022-07-29T05:12:28;96376.13;;;19.28;100.00
11038;BME280;5572;49.540;11.932;2022-07-29T05:14:55;96375.28;;;19.12;100.00
11038;BME280;5572;49.540;11.932;2022-07-29T05:17:21;96418.09;;;19.16;100.00
11038;BME280;5572;49.540;11.932;2022-07-29T05:19:48;96275.03;;;19.11;100.00
11038;BME280;5572;49.540;11.932;2022-07-29T05:22:17;96315.97;;;19.31;100.00
11038;BME280;5572;49.540;11.932;2022-07-29T05:24:44;96248.31;;;19.51;100.00
11038;BME280;5572;49.540;11.932;2022-07-29T05:27:11;96210.44;;;19.72;100.00
11038;BME280;5572;49.540;11.932;2022-07-29T05:29:37;96214.25;;;19.52;100.00
11038;BME280;5572;49.540;11.932;2022-07-29T05:32:04;96182.50;;;19.35;100.00
11038;BME280;5572;49.540;11.932;2022-07-29T05:34:31;96176.16;;;19.31;100.00
11038;BME280;5572;49.540;11.932;2022-07-29T05:36:58;96259.31;;;19.23;100.00
11038;BME280;5572;49.540;11.932;2022-07-29T05:39:26;96342.66;;;19.34;100.00
11038;BME280;5572;49.540;11.932;2022-07-29T05:41:52;96417.41;;;19.47;100.00
11038;BME280;5572;49.540;11.932;2022-07-29T05:44:19;96335.31;;;19.66;100.00
11038;BME280;5572;49.540;11.932;2022-07-29T05:46:45;96237.78;;;19.53;100.00
11038;BME280;5572;49.540;11.932;2022-07-29T05:49:12;96232.16;;;19.61;100.00
11038;BME280;5572;49.540;11.932;2022-07-29T05:51:38;96233.63;;;19.59;100.00
11038;BME280;5572;49.540;11.932;2022-07-29T05:54:05;96172.34;;;19.51;100.00
11038;BME280;5572;49.540;11.932;2022-07-29T05:56:33;96203.09;;;19.91;100.00
11038;BME280;5572;49.540;11.932;2022-07-29T05:58:59;96253.63;;;19.59;100.00
11038;BME280;5572;49.540;11.932;2022-07-29T06:01:26;96270.09;;;20.05;100.00
11038;BME280;5572;49.540;11.932;2022-07-29T06:03:52;96217.44;;;20.00;100.00
11038;BME280;5572;49.540;11.932;2022-07-29T06:06:19;96296.28;;;20.18;100.00
11038;BME280;5572;49.540;11.932;2022-07-29T06:08:46;96138.72;;;20.23;100.00
11038;BME280;5572;49.540;11.932;2022-07-29T06:11:12;96193.59;;;20.04;100.00
11038;BME280;5572;49.540;11.932;2022-07-29T06:13:40;96259.28;;;20.12;100.00
11038;BME280;5572;49.540;11.932;2022-07-29T06:16:07;96181.41;;;20.01;100.00
11038;BME280;5572;49.540;11.932;2022-07-29T06:18:33;96207.50;;;20.11;100.00
11038;BME280;5572;49.540;11.932;2022-07-29T06:21:00;96145.09;;;19.92;100.00
11038;BME280;5572;49.540;11.932;2022-07-29T06:23:26;96270.00;;;20.02;100.00
11038;BME280;5572;49.540;11.932;2022-07-29T06:25:53;96212.38;;;20.02;100.00
11038;BME280;5572;49.540;11.932;2022-07-29T06:28:20;96285.38;;;20.22;100.00
11038;BME280;5572;49.540;11.932;2022-07-29T06:30:48;96349.88;;;20.62;100.00
11038;BME280;5572;49.540;11.932;2022-07-29T06:33:18;96210.09;;;20.23;100.00
11038;BME280;5572;49.540;11.932;2022-07-29T06:35:44;96265.84;;;20.08;100.00
11038;BME280;5572;49.540;11.932;2022-07-29T06:38:12;96324.34;;;20.12;100.00
11038;BME280;5572;49.540;11.932;2022-07-29T06:40:41;96243.59;;;20.47;100.00
11038;BME280;5572;49.540;11.932;2022-07-29T06:43:25;96261.75;;;20.52;100.00
11038;BME280;5572;49.540;11.932;2022-07-29T06:45:53;96230.94;;;20.43;100.00
11038;BME280;5572;49.540;11.932;2022-07-29T06:48:19;96204.50;;;20.54;100.00
11038;BME280;5572;49.540;11.932;2022-07-29T06:50:46;96228.88;;;20.74;100.00
11038;BME280;5572;49.540;11.932;2022-07-29T06:53:12;96248.28;;;21.00;100.00
11038;BME280;5572;49.540;11.932;2022-07-29T06:55:39;96164.75;;;21.49;100.00
11038;BME280;5572;49.540;11.932;2022-07-29T06:58:05;96056.88;;;21.59;100.00
11038;BME280;5572;49.540;11.932;2022-07-29T07:00:32;95940.56;;;21.95;100.00
11038;BME280;5572;49.540;11.932;2022-07-29T07:03:00;95906.16;;;21.46;100.00
11038;BME280;5572;49.540;11.932;2022-07-29T07:05:27;95922.53;;;21.09;100.00
11038;BME280;5572;49.540;11.932;2022-07-29T07:07:53;95976.81;;;20.68;100.00
11038;BME280;5572;49.540;11.932;2022-07-29T07:10:20;96057.53;;;21.04;100.00
11038;BME280;5572;49.540;11.932;2022-07-29T07:12:46;96004.47;;;21.00;100.00
11038;BME280;5572;49.540;11.932;2022-07-29T07:15:13;96033.22;;;21.32;100.00
11038;BME280;5572;49.540;11.932;2022-07-29T07:17:39;96033.34;;;21.91;100.00
11038;BME280;5572;49.540;11.932;2022-07-29T07:20:08;96036.88;;;20.91;100.00
11038;BME280;5572;49.540;11.932;2022-07-29T07:22:35;96130.09;;;21.22;100.00
11038;BME280;5572;49.540;11.932;2022-07-29T07:25:01;96083.19;;;20.89;100.00
11038;BME280;5572;49.540;11.932;2022-07-29T07:27:28;96173.28;;;21.44;100.00
11038;BME280;5572;49.540;11.932;2022-07-29T07:29:55;96157.28;;;21.05;100.00
11038;BME280;5572;49.540;11.932;2022-07-29T07:32:21;96126.13;;;20.97;100.00
11038;BME280;5572;49.540;11.932;2022-07-29T07:34:48;96151.06;;;21.30;100.00
11038;BME280;5572;49.540;11.932;2022-07-29T07:37:16;96154.03;;;21.44;100.00
11038;BME280;5572;49.540;11.932;2022-07-29T07:39:44;96212.88;;;21.59;100.00
11038;BME280;5572;49.540;11.932;2022-07-29T07:42:11;96187.00;;;21.63;100.00
11038;BME280;5572;49.540;11.932;2022-07-29T07:44:38;96190.28;;;21.72;100.00
11038;BME280;5572;49.540;11.932;2022-07-29T07:47:04;96152.13;;;21.96;100.00
11038;BME280;5572;49.540;11.932;2022-07-29T07:49:31;96122.09;;;21.84;100.00
11038;BME280;5572;49.540;11.932;2022-07-29T07:51:57;96031.03;;;22.62;100.00
11038;BME280;5572;49.540;11.932;2022-07-29T07:54:25;95972.75;;;23.64;100.00
11038;BME280;5572;49.540;11.932;2022-07-29T07:56:52;95906.84;;;23.48;100.00
11038;BME280;5572;49.540;11.932;2022-07-29T07:59:18;95875.16;;;24.07;100.00
11038;BME280;5572;49.540;11.932;2022-07-29T08:01:45;95836.53;;;24.55;100.00
11038;BME280;5572;49.540;11.932;2022-07-29T08:04:11;95702.47;;;25.84;100.00
11038;BME280;5572;49.540;11.932;2022-07-29T08:06:38;95647.88;;;25.30;100.00
11038;BME280;5572;49.540;11.932;2022-07-29T08:09:05;95673.13;;;25.32;100.00
11038;BME280;5572;49.540;11.932;2022-07-29T08:11:33;95639.28;;;26.15;100.00
11038;BME280;5572;49.540;11.932;2022-07-29T08:13:59;95420.84;;;25.74;100.00
11038;BME280;5572;49.540;11.932;2022-07-29T08:16:26;95486.09;;;26.15;100.00
11038;BME280;5572;49.540;11.932;2022-07-29T08:18:53;95482.38;;;25.15;100.00
11038;BME280;5572;49.540;11.932;2022-07-29T08:21:22;95566.41;;;24.66;100.00
11038;BME280;5572;49.540;11.932;2022-07-29T08:23:50;95470.78;;;24.72;100.00
11038;BME280;5572;49.540;11.932;2022-07-29T08:26:18;95503.91;;;25.77;100.00
11038;BME280;5572;49.540;11.932;2022-07-29T08:28:49;95455.06;;;25.57;100.00
11038;BME280;5572;49.540;11.932;2022-07-29T08:31:16;95391.16;;;25.44;100.00
11038;BME280;5572;49.540;11.932;2022-07-29T08:33:43;95477.00;;;26.44;100.00
11038;BME280;5572;49.540;11.932;2022-07-29T08:36:09;95295.06;;;27.22;100.00
11038;BME280;5572;49.540;11.932;2022-07-29T08:38:37;95195.22;;;26.57;100.00
11038;BME280;5572;49.540;11.932;2022-07-29T08:41:04;95380.94;;;26.05;100.00
11038;BME280;5572;49.540;11.932;2022-07-29T08:43:31;95290.94;;;27.30;100.00
11038;BME280;5572;49.540;11.932;2022-07-29T08:46:01;95161.66;;;27.49;100.00
11038;BME280;5572;49.540;11.932;2022-07-29T08:48:28;95278.97;;;27.33;100.00
11038;BME280;5572;49.540;11.932;2022-07-29T08:50:56;95202.75;;;27.18;100.00
11038;BME280;5572;49.540;11.932;2022-07-29T08:53:26;95233.41;;;28.53;100.00
11038;BME280;5572;49.540;11.932;2022-07-29T08:55:53;95087.72;;;28.18;100.00
11038;BME280;5572;49.540;11.932;2022-07-29T08:58:20;95172.66;;;27.88;100.00
11038;BME280;5572;49.540;11.932;2022-07-29T09:00:50;95167.56;;;26.73;100.00
11038;BME280;5572;49.540;11.932;2022-07-29T09:03:20;95403.38;;;25.47;100.00
11038;BME280;5572;49.540;11.932;2022-07-29T09:05:48;95455.50;;;25.52;100.00
11038;BME280;5572;49.540;11.932;2022-07-29T09:08:16;95564.13;;;25.70;100.00
11038;BME280;5572;49.540;11.932;2022-07-29T09:10:44;95534.16;;;26.35;100.00
11038;BME280;5572;49.540;11.932;2022-07-29T09:13:10;95431.56;;;25.72;100.00
11038;BME280;5572;49.540;11.932;2022-07-29T09:15:37;95588.53;;;25.85;100.00
11038;BME280;5572;49.540;11.932;2022-07-29T09:18:04;95602.19;;;26.39;100.00
11038;BME280;5572;49.540;11.932;2022-07-29T09:20:32;95522.94;;;27.77;100.00
11038;BME280;5572;49.540;11.932;2022-07-29T09:23:12;95364.81;;;28.21;100.00
11038;BME280;5572;49.540;11.932;2022-07-29T09:25:40;95313.53;;;28.42;100.00
11038;BME280;5572;49.540;11.932;2022-07-29T09:28:08;95333.88;;;28.39;100.00
11038;BME280;5572;49.540;11.932;2022-07-29T09:30:35;95352.56;;;28.38;100.00
11038;BME280;5572;49.540;11.932;2022-07-29T09:33:03;95458.00;;;26.13;100.00
11038;BME280;5572;49.540;11.932;2022-07-29T09:35:31;95599.66;;;26.18;100.00
11038;BME280;5572;49.540;11.932;2022-07-29T09:38:09;95673.66;;;26.95;100.00
11038;BME280;5572;49.540;11.932;2022-07-29T09:40:36;95508.28;;;27.27;100.00
11038;BME280;5572;49.540;11.932;2022-07-29T09:43:09;95496.78;;;27.75;100.00
11038;BME280;5572;49.540;11.932;2022-07-29T09:45:36;95443.22;;;28.52;100.00
11038;BME280;5572;49.540;11.932;2022-07-29T09:48:13;95356.91;;;29.91;100.00
11038;BME280;5572;49.540;11.932;2022-07-29T09:50:43;95435.53;;;28.75;100.00
11038;BME280;5572;49.540;11.932;2022-07-29T09:53:10;95305.03;;;29.81;100.00
11038;BME280;5572;49.540;11.932;2022-07-29T09:55:47;95105.91;;;28.80;100.00
11038;BME280;5572;49.540;11.932;2022-07-29T09:58:15;95253.47;;;28.76;100.00
11038;BME280;5572;49.540;11.932;2022-07-29T10:00:43;95171.97;;;28.31;100.00
11038;BME280;5572;49.540;11.932;2022-07-29T10:03:10;95285.94;;;28.15;100.00
11038;BME280;5572;49.540;11.932;2022-07-29T10:05:37;95286.31;;;27.82;100.00
11038;BME280;5572;49.540;11.932;2022-07-29T10:08:06;95429.13;;;27.85;100.00
11038;BME280;5572;49.540;11.932;2022-07-29T10:10:35;95381.25;;;27.77;100.00
11038;BME280;5572;49.540;11.932;2022-07-29T10:13:04;95450.56;;;28.03;100.00
11038;BME280;5572;49.540;11.932;2022-07-29T10:15:32;95429.88;;;28.63;100.00
11038;BME280;5572;49.540;11.932;2022-07-29T10:18:02;95166.88;;;28.30;100.00
11038;BME280;5572;49.540;11.932;2022-07-29T10:20:29;95329.63;;;27.80;100.00
11038;BME280;5572;49.540;11.932;2022-07-29T10:22:56;95490.75;;;26.81;100.00
11038;BME280;5572;49.540;11.932;2022-07-29T10:25:25;95442.50;;;27.47;100.00
11038;BME280;5572;49.540;11.932;2022-07-29T10:27:53;95417.50;;;28.09;100.00
11038;BME280;5572;49.540;11.932;2022-07-29T10:30:21;95371.84;;;28.81;100.00
11038;BME280;5572;49.540;11.932;2022-07-29T10:33:09;95197.75;;;29.08;100.00
11038;BME280;5572;49.540;11.932;2022-07-29T10:35:47;95026.41;;;28.94;100.00
11038;BME280;5572;49.540;11.932;2022-07-29T10:38:34;95120.13;;;29.75;100.00
11038;BME280;5572;49.540;11.932;2022-07-29T10:41:14;95020.59;;;29.01;100.00
11038;BME280;5572;49.540;11.932;2022-07-29T10:43:56;95087.19;;;29.21;100.00
11038;BME280;5572;49.540;11.932;2022-07-29T10:46:23;95080.66;;;29.89;100.00
11038;BME280;5572;49.540;11.932;2022-07-29T10:49:12;94935.38;;;29.87;100.00
11038;BME280;5572;49.540;11.932;2022-07-29T10:51:51;94690.34;;;29.72;100.00
11038;BME280;5572;49.540;11.932;2022-07-29T10:54:18;94627.06;;;30.20;100.00
11038;BME280;5572;49.540;11.932;2022-07-29T10:56:46;94619.47;;;29.21;100.00
11038;BME280;5572;49.540;11.932;2022-07-29T10:59:25;94669.53;;;29.12;100.00
11038;BME280;5572;49.540;11.932;2022-07-29T11:01:54;94543.91;;;29.31;100.00
11038;BME280;5572;49.540;11.932;2022-07-29T11:04:59;94544.03;;;28.76;100.00
11038;BME280;5572;49.540;11.932;2022-07-29T11:07:26;94679.03;;;29.66;100.00
11038;BME280;5572;49.540;11.932;2022-07-29T11:10:19;94648.53;;;29.20;100.00
11038;BME280;5572;49.540;11.932;2022-07-29T11:12:48;94709.72;;;27.93;100.00
11038;BME280;5572;49.540;11.932;2022-07-29T11:15:15;94718.19;;;29.07;100.00
11038;BME280;5572;49.540;11.932;2022-07-29T11:18:08;94772.69;;;29.30;100.00
11038;BME280;5572;49.540;11.932;2022-07-29T11:20:39;94653.81;;;29.18;100.00
11038;BME280;5572;49.540;11.932;2022-07-29T11:23:21;94779.56;;;29.80;100.00
11038;BME280;5572;49.540;11.932;2022-07-29T11:26:13;94700.41;;;29.69;100.00
11038;BME280;5572;49.540;11.932;2022-07-29T11:28:50;94727.66;;;29.95;100.00
11038;BME280;5572;49.540;11.932;2022-07-29T11:31:31;94646.66;;;30.38;100.00
11038;BME280;5572;49.540;11.932;2022-07-29T11:34:15;94723.06;;;30.10;100.00
11038;BME280;5572;49.540;11.932;2022-07-29T11:39:43;94608.69;;;29.01;100.00
11038;BME280;5572;49.540;11.932;2022-07-29T11:42:39;94538.88;;;31.30;100.00
11038;BME280;5572;49.540;11.932;2022-07-29T11:45:09;94462.78;;;29.51;100.00
11038;BME280;5572;49.540;11.932;2022-07-29T11:47:41;94647.78;;;30.01;100.00
11038;BME280;5572;49.540;11.932;2022-07-29T11:50:10;94698.63;;;29.54;100.00
11038;BME280;5572;49.540;11.932;2022-07-29T11:52:39;94510.13;;;30.17;100.00
11038;BME280;5572;49.540;11.932;2022-07-29T11:55:12;94439.91;;;30.72;100.00
11038;BME280;5572;49.540;11.932;2022-07-29T11:57:46;94298.78;;;31.59;100.00
11038;BME280;5572;49.540;11.932;2022-07-29T12:00:25;94274.88;;;30.65;100.00
11038;BME280;5572;49.540;11.932;2022-07-29T12:02:52;94376.97;;;30.03;100.00
11038;BME280;5572;49.540;11.932;2022-07-29T12:05:19;94404.19;;;29.72;100.00
11038;BME280;5572;49.540;11.932;2022-07-29T12:07:46;94418.69;;;31.16;100.00
11038;BME280;5572;49.540;11.932;2022-07-29T12:10:13;94328.84;;;30.53;100.00
11038;BME280;5572;49.540;11.932;2022-07-29T12:12:40;94283.50;;;30.66;100.00
11038;BME280;5572;49.540;11.932;2022-07-29T12:15:11;94234.44;;;31.30;100.00
11038;BME280;5572;49.540;11.932;2022-07-29T12:17:39;94340.84;;;31.79;100.00
11038;BME280;5572;49.540;11.932;2022-07-29T12:20:07;94313.00;;;31.23;100.00
11038;BME280;5572;49.540;11.932;2022-07-29T12:22:35;94293.13;;;30.98;100.00
11038;BME280;5572;49.540;11.932;2022-07-29T12:25:06;94332.84;;;30.93;100.00
11038;BME280;5572;49.540;11.932;2022-07-29T12:27:34;94275.88;;;30.35;100.00
11038;BME280;5572;49.540;11.932;2022-07-29T12:30:03;94172.91;;;30.22;100.00
11038;BME280;5572;49.540;11.932;2022-07-29T12:32:32;94244.72;;;29.95;100.00
11038;BME280;5572;49.540;11.932;2022-07-29T12:35:02;94308.59;;;30.25;100.00
11038;BME280;5572;49.540;11.932;2022-07-29T12:37:29;94468.31;;;30.08;100.00
11038;BME280;5572;49.540;11.932;2022-07-29T12:39:56;94490.00;;;30.31;100.00
11038;BME280;5572;49.540;11.932;2022-07-29T12:42:23;94377.19;;;30.50;100.00
11038;BME280;5572;49.540;11.932;2022-07-29T12:44:50;94436.88;;;29.98;100.00
11038;BME280;5572;49.540;11.932;2022-07-29T12:47:17;94498.53;;;30.54;100.00
11038;BME280;5572;49.540;11.932;2022-07-29T12:49:45;94308.34;;;31.67;100.00
11038;BME280;5572;49.540;11.932;2022-07-29T12:52:29;94173.94;;;31.94;100.00
11038;BME280;5572;49.540;11.932;2022-07-29T12:54:57;94080.13;;;31.93;100.00
11038;BME280;5572;49.540;11.932;2022-07-29T12:57:24;94052.41;;;33.09;100.00
11038;BME280;5572;49.540;11.932;2022-07-29T13:00:06;93929.13;;;33.03;100.00
11038;BME280;5572;49.540;11.932;2022-07-29T13:02:35;93845.56;;;32.15;100.00
11038;BME280;5572;49.540;11.932;2022-07-29T13:05:02;94098.34;;;30.78;100.00
11038;BME280;5572;49.540;11.932;2022-07-29T13:07:32;94065.13;;;31.04;100.00